Date,TemperatureHighF,TemperatureAvgF,TemperatureLowF,DewpointHighF,DewpointAvgF,DewpointLowF,HumidityHigh,HumidityAvg,HumidityLow,PressureMaxIn,PressureMinIn,WindSpeedMaxMPH,WindSpeedAvgMPH,GustSpeedMaxMPH,PrecipitationSumIn
2013-4-2,47,47,47,7,7,7,19,19,19,29.88,29.88,12,10,20,0.00
2013-4-3,52,46,34,7,4,0,27,18,16,29.97,29.88,13,5,20,0.00
2013-4-4,49,42,36,5,2,-1,22,18,16,29.88,29.83,7,4,14,0.00
2013-4-5,55,48,37,8,4,-2,19,17,15,30.03,29.88,6,3,17,0.00
2013-4-6,58,47,34,10,5,-2,25,18,14,30.18,30.09,6,2,9,0.00
2013-4-7,47,45,43,13,8,6,28,22,19,29.94,29.62,15,11,25,0.00
2013-4-8,47,44,42,39,28,21,80,54,39,29.47,29.29,15,11,23,0.16
2013-4-9,52,47,45,27,22,19,48,37,28,29.44,29.18,6,2,15,0.33
2013-4-10,48,48,48,33,33,33,56,56,56,29.50,29.50,6,6,6,0.00
2013-4-11,57,52,48,37,32,28,60,46,36,29.32,29.20,7,4,13,0.04
2013-4-12,61,55,47,27,22,17,43,29,19,29.62,29.32,9,5,17,0.17
2013-4-13,55,53,50,50,48,45,83,82,80,29.65,29.56,8,5,15,0.33
2013-4-14,62,55,52,36,32,25,53,42,25,29.80,29.68,7,5,15,0.08
2013-4-15,61,54,51,36,33,28,56,44,29,29.91,29.80,8,5,17,0.00
2013-4-16,66,57,50,37,25,14,60,32,15,29.94,29.85,8,3,15,0.04
2013-4-17,56,53,50,47,34,24,85,51,32,29.80,29.68,8,6,21,0.04
2013-4-18,60,54,47,22,17,14,30,23,19,30.09,29.85,12,8,23,0.00
2013-4-19,63,55,40,22,16,11,39,22,16,30.36,30.24,6,3,13,0.00
2013-4-20,60,54,39,31,15,11,49,22,17,30.39,30.27,8,3,10,0.00
2013-4-21,56,51,47,32,23,20,47,34,26,30.12,29.94,6,3,10,0.00
2013-4-22,53,52,50,39,33,22,66,49,30,29.97,29.88,6,3,12,0.08
2013-4-23,61,56,51,34,30,27,47,36,29,30.12,30.03,6,3,11,0.04
2013-4-24,59,55,51,37,32,30,57,42,34,30.18,30.12,3,1,6,0.00
2013-4-25,61,55,48,35,29,23,55,38,25,30.09,29.97,5,2,10,0.00
2013-4-26,57,51,42,16,12,5,31,21,15,30.03,29.91,9,5,15,0.00
2013-4-27,60,53,44,23,12,7,39,20,14,30.00,29.88,6,3,13,0.00
2013-4-28,60,53,48,32,19,11,53,29,17,30.00,29.83,6,3,14,0.00
2013-4-29,59,52,38,18,13,11,40,22,17,30.12,29.94,7,4,14,0.00
2013-4-30,65,58,46,20,12,5,36,17,13,30.21,30.12,6,3,12,0.00